Aurora, Oregon
Current Conditions -  °F | °C
As of 1:53 PM on Friday 19 Dec 2014 (Local Time) from KUAO Reporting Station
Overcast Overcast  
Wind Chill: 50°   Ceiling: 7500
Heat Index: 50°   Visibility: 10mi
Dew Point: 43°   Wind: 13mph
Humidity: 77%   Direction: 190°S
Pressure: 30.01"   Gusts: NA
Location:  45.23°N, 122.76°W
Report Text: KUAO 192153Z AUTO 19011KT 10SM BKN075 OVC095 10/06 A3001 RMK AO2 SLP162 T01000061
Loading
Personal Weather Stations






























Interactive Weather Map New forecast layout! Learn more

10-Day Weather Forecast

Advertisements
Track Severe Weather on mobile